sensor_id;sensor_type;location;lat;lon;timestamp;P1;durP1;ratioP1;P2;durP2;ratioP2
50789;SDS011;37287;47.554;7.844;2022-08-03T17:35:50;0.90;;;0.80;;
50789;SDS011;37287;47.554;7.844;2022-08-03T17:38:23;1.00;;;0.60;;
50789;SDS011;37287;47.554;7.844;2022-08-03T17:40:56;0.90;;;0.70;;
50789;SDS011;37287;47.554;7.844;2022-08-03T17:43:25;0.70;;;0.70;;
50789;SDS011;37287;47.554;7.844;2022-08-03T17:46:12;0.80;;;0.80;;
50789;SDS011;37287;47.554;7.844;2022-08-03T17:48:45;0.77;;;0.70;;
50789;SDS011;37287;47.554;7.844;2022-08-03T17:51:21;0.70;;;0.70;;
50789;SDS011;37287;47.554;7.844;2022-08-03T17:54:03;0.60;;;0.60;;
50789;SDS011;37287;47.554;7.844;2022-08-03T17:59:17;0.90;;;0.90;;
50789;SDS011;37287;47.554;7.844;2022-08-03T18:02:32;0.90;;;0.90;;
50789;SDS011;37287;47.554;7.844;2022-08-03T18:05:25;0.60;;;0.60;;
50789;SDS011;37287;47.554;7.844;2022-08-03T18:08:32;0.55;;;0.55;;
50789;SDS011;37287;47.554;7.844;2022-08-03T18:11:11;1.33;;;0.70;;
50789;SDS011;37287;47.554;7.844;2022-08-03T18:14:00;1.10;;;0.80;;
50789;SDS011;37287;47.554;7.844;2022-08-03T18:19:15;0.52;;;0.52;;
50789;SDS011;37287;47.554;7.844;2022-08-03T18:22:04;2.22;;;0.63;;
50789;SDS011;37287;47.554;7.844;2022-08-03T18:24:31;0.80;;;0.80;;
50789;SDS011;37287;47.554;7.844;2022-08-03T18:26:59;0.63;;;0.63;;
50789;SDS011;37287;47.554;7.844;2022-08-03T18:29:31;3.50;;;1.05;;
50789;SDS011;37287;47.554;7.844;2022-08-03T18:32:04;1.67;;;0.85;;
50789;SDS011;37287;47.554;7.844;2022-08-03T18:34:38;4.93;;;1.00;;
50789;SDS011;37287;47.554;7.844;2022-08-03T18:37:20;1.15;;;1.00;;
50789;SDS011;37287;47.554;7.844;2022-08-03T18:39:53;1.48;;;1.08;;
50789;SDS011;37287;47.554;7.844;2022-08-03T18:42:23;2.40;;;1.00;;
50789;SDS011;37287;47.554;7.844;2022-08-03T18:44:52;0.85;;;0.85;;
50789;SDS011;37287;47.554;7.844;2022-08-03T18:47:26;3.38;;;1.10;;
50789;SDS011;37287;47.554;7.844;2022-08-03T18:50:21;0.93;;;0.90;;
50789;SDS011;37287;47.554;7.844;2022-08-03T18:53:19;1.02;;;0.90;;
50789;SDS011;37287;47.554;7.844;2022-08-03T18:56:13;1.25;;;1.15;;
50789;SDS011;37287;47.554;7.844;2022-08-03T18:58:58;5.68;;;1.08;;
50789;SDS011;37287;47.554;7.844;2022-08-03T19:01:39;5.10;;;1.00;;
50789;SDS011;37287;47.554;7.844;2022-08-03T19:04:33;1.83;;;0.93;;
50789;SDS011;37287;47.554;7.844;2022-08-03T19:07:09;2.05;;;1.10;;
50789;SDS011;37287;47.554;7.844;2022-08-03T19:09:46;2.33;;;1.15;;
50789;SDS011;37287;47.554;7.844;2022-08-03T19:12:23;1.20;;;1.10;;
50789;SDS011;37287;47.554;7.844;2022-08-03T19:14:59;1.17;;;1.00;;
50789;SDS011;37287;47.554;7.844;2022-08-03T19:17:32;2.22;;;1.05;;
50789;SDS011;37287;47.554;7.844;2022-08-03T19:20:03;1.48;;;1.10;;
50789;SDS011;37287;47.554;7.844;2022-08-03T19:22:31;3.47;;;1.30;;
50789;SDS011;37287;47.554;7.844;2022-08-03T19:24:59;9.90;;;1.40;;
50789;SDS011;37287;47.554;7.844;2022-08-03T19:27:32;1.58;;;1.27;;
50789;SDS011;37287;47.554;7.844;2022-08-03T19:30:03;1.10;;;1.10;;
50789;SDS011;37287;47.554;7.844;2022-08-03T19:32:52;1.10;;;1.10;;
50789;SDS011;37287;47.554;7.844;2022-08-03T19:35:21;1.20;;;1.10;;
50789;SDS011;37287;47.554;7.844;2022-08-03T19:38:08;1.55;;;1.02;;
50789;SDS011;37287;47.554;7.844;2022-08-03T19:40:55;4.35;;;1.50;;
50789;SDS011;37287;47.554;7.844;2022-08-03T19:45:58;1.25;;;1.10;;
50789;SDS011;37287;47.554;7.844;2022-08-03T19:48:32;1.15;;;1.10;;
50789;SDS011;37287;47.554;7.844;2022-08-03T19:51:07;1.27;;;1.23;;
50789;SDS011;37287;47.554;7.844;2022-08-03T19:53:38;3.78;;;1.00;;
50789;SDS011;37287;47.554;7.844;2022-08-03T19:56:10;3.45;;;1.10;;
50789;SDS011;37287;47.554;7.844;2022-08-03T19:58:41;1.45;;;1.10;;
50789;SDS011;37287;47.554;7.844;2022-08-03T20:01:18;1.20;;;1.20;;
50789;SDS011;37287;47.554;7.844;2022-08-03T20:03:47;1.48;;;1.38;;
50789;SDS011;37287;47.554;7.844;2022-08-03T20:06:21;3.88;;;1.45;;
50789;SDS011;37287;47.554;7.844;2022-08-03T20:08:48;4.78;;;1.20;;
50789;SDS011;37287;47.554;7.844;2022-08-03T20:11:16;1.55;;;1.40;;
50789;SDS011;37287;47.554;7.844;2022-08-03T20:13:54;1.50;;;1.40;;
50789;SDS011;37287;47.554;7.844;2022-08-03T20:16:23;1.73;;;1.17;;
50789;SDS011;37287;47.554;7.844;2022-08-03T20:18:50;4.75;;;1.23;;
50789;SDS011;37287;47.554;7.844;2022-08-03T20:21:17;1.75;;;1.20;;
50789;SDS011;37287;47.554;7.844;2022-08-03T20:23:49;3.53;;;1.25;;
50789;SDS011;37287;47.554;7.844;2022-08-03T20:26:28;1.40;;;1.25;;
50789;SDS011;37287;47.554;7.844;2022-08-03T20:28:57;1.40;;;1.20;;
50789;SDS011;37287;47.554;7.844;2022-08-03T20:31:35;1.60;;;1.20;;
50789;SDS011;37287;47.554;7.844;2022-08-03T20:34:04;3.15;;;1.08;;
50789;SDS011;37287;47.554;7.844;2022-08-03T20:36:34;1.95;;;1.33;;
50789;SDS011;37287;47.554;7.844;2022-08-03T20:39:03;1.35;;;1.25;;
50789;SDS011;37287;47.554;7.844;2022-08-03T20:41:35;4.63;;;1.20;;
50789;SDS011;37287;47.554;7.844;2022-08-03T20:44:02;3.83;;;1.40;;
50789;SDS011;37287;47.554;7.844;2022-08-03T20:46:29;1.00;;;0.95;;
50789;SDS011;37287;47.554;7.844;2022-08-03T20:49:19;3.10;;;1.00;;
50789;SDS011;37287;47.554;7.844;2022-08-03T20:51:49;1.52;;;1.15;;
50789;SDS011;37287;47.554;7.844;2022-08-03T20:54:25;5.40;;;1.63;;
50789;SDS011;37287;47.554;7.844;2022-08-03T20:56:56;1.30;;;1.20;;
50789;SDS011;37287;47.554;7.844;2022-08-03T20:59:23;2.40;;;1.33;;
50789;SDS011;37287;47.554;7.844;2022-08-03T21:02:16;2.33;;;1.20;;
50789;SDS011;37287;47.554;7.844;2022-08-03T21:04:54;4.75;;;1.30;;
50789;SDS011;37287;47.554;7.844;2022-08-03T21:07:23;1.60;;;1.13;;
50789;SDS011;37287;47.554;7.844;2022-08-03T21:10:14;2.28;;;1.50;;
50789;SDS011;37287;47.554;7.844;2022-08-03T21:13:00;1.75;;;1.30;;
50789;SDS011;37287;47.554;7.844;2022-08-03T21:15:47;1.20;;;1.10;;
50789;SDS011;37287;47.554;7.844;2022-08-03T21:18:38;1.35;;;1.25;;
50789;SDS011;37287;47.554;7.844;2022-08-03T21:21:10;3.28;;;1.23;;
50789;SDS011;37287;47.554;7.844;2022-08-03T21:23:42;4.65;;;1.40;;
50789;SDS011;37287;47.554;7.844;2022-08-03T21:26:15;2.45;;;1.20;;
50789;SDS011;37287;47.554;7.844;2022-08-03T21:28:46;1.85;;;1.50;;
50789;SDS011;37287;47.554;7.844;2022-08-03T21:31:15;2.25;;;1.40;;
50789;SDS011;37287;47.554;7.844;2022-08-03T21:33:51;2.75;;;1.55;;
50789;SDS011;37287;47.554;7.844;2022-08-03T21:36:34;2.00;;;1.10;;
50789;SDS011;37287;47.554;7.844;2022-08-03T21:39:03;1.50;;;1.40;;
50789;SDS011;37287;47.554;7.844;2022-08-03T21:41:34;3.58;;;1.20;;
50789;SDS011;37287;47.554;7.844;2022-08-03T21:44:02;1.55;;;1.40;;
50789;SDS011;37287;47.554;7.844;2022-08-03T21:46:36;1.50;;;1.40;;
50789;SDS011;37287;47.554;7.844;2022-08-03T21:49:06;1.83;;;1.33;;
50789;SDS011;37287;47.554;7.844;2022-08-03T21:51:58;2.35;;;1.35;;
50789;SDS011;37287;47.554;7.844;2022-08-03T21:54:32;8.07;;;1.23;;
50789;SDS011;37287;47.554;7.844;2022-08-03T21:57:02;2.80;;;1.63;;
50789;SDS011;37287;47.554;7.844;2022-08-03T21:59:31;2.05;;;1.30;;
50789;SDS011;37287;47.554;7.844;2022-08-03T22:02:03;1.52;;;1.33;;
50789;SDS011;37287;47.554;7.844;2022-08-03T22:04:48;3.58;;;1.20;;
50789;SDS011;37287;47.554;7.844;2022-08-03T22:07:23;3.10;;;1.13;;
50789;SDS011;37287;47.554;7.844;2022-08-03T22:09:51;8.95;;;1.60;;
50789;SDS011;37287;47.554;7.844;2022-08-03T22:12:21;3.42;;;1.48;;
50789;SDS011;37287;47.554;7.844;2022-08-03T22:14:51;2.55;;;1.48;;
50789;SDS011;37287;47.554;7.844;2022-08-03T22:17:26;6.90;;;1.60;;
50789;SDS011;37287;47.554;7.844;2022-08-03T22:20:15;3.65;;;1.60;;
50789;SDS011;37287;47.554;7.844;2022-08-03T22:22:43;2.25;;;1.20;;
50789;SDS011;37287;47.554;7.844;2022-08-03T22:25:20;1.75;;;1.50;;
50789;SDS011;37287;47.554;7.844;2022-08-03T22:27:52;1.58;;;1.48;;
50789;SDS011;37287;47.554;7.844;2022-08-03T22:30:19;1.65;;;1.48;;
50789;SDS011;37287;47.554;7.844;2022-08-03T22:32:48;2.92;;;1.10;;
50789;SDS011;37287;47.554;7.844;2022-08-03T22:35:17;2.15;;;1.10;;
50789;SDS011;37287;47.554;7.844;2022-08-03T22:37:50;4.10;;;1.35;;
50789;SDS011;37287;47.554;7.844;2022-08-03T22:40:19;1.55;;;1.10;;
50789;SDS011;37287;47.554;7.844;2022-08-03T22:42:46;6.00;;;1.50;;
50789;SDS011;37287;47.554;7.844;2022-08-03T22:45:17;1.73;;;1.42;;
50789;SDS011;37287;47.554;7.844;2022-08-03T22:48:04;1.85;;;1.40;;
50789;SDS011;37287;47.554;7.844;2022-08-03T22:50:34;1.65;;;1.50;;
50789;SDS011;37287;47.554;7.844;2022-08-03T22:53:02;1.60;;;1.50;;
50789;SDS011;37287;47.554;7.844;2022-08-03T22:55:28;2.35;;;1.38;;
50789;SDS011;37287;47.554;7.844;2022-08-03T22:57:57;1.60;;;1.50;;
